Aviation Digital Data Service (ADDS)

Output produced by METARs form (1202 UTC 24 February 2018)
found at http://www.aviationweather.gov/adds/metars/
 
KHBG 241154Z 2412/2512 15004KT P6SM VCSH BKN008 BKN017 OVC030 
     FM241500 16008KT P6SM VCSH BKN015 
     FM241700 17011G20KT P6SM VCSH BKN025 
     FM241900 18015G25KT P6SM VCSH BKN035 
     FM250900 20012KT 5SM TSRA BKN025 OVC035CB
       
KHIE 241120Z 2412/2512 28005KT P6SM BKN040 
     FM241300 28012G20KT P6SM BKN045 
     FM241800 30008KT P6SM SCT050 
     FM250300 01004KT P6SM BKN250
       
TAF AMD KHIF 240609Z 2406/2511 VRB06KT 8000 BR BKN025 QNH3013INS 
     BECMG 2409/2410 20009KT 9999 NSW SCT030 QNH3011INS 
     BECMG 2418/2419 20012G18KT 9999 BKN030 620305 QNH3003INS 
     BECMG 2423/2424 18012G18KT 6000 -SHSN OVC015 610159 QNH3002INS 
     BECMG 2505/2506 31012KT 6000 -SHSN OVC015 610157 QNH2999INS TXM02/2500Z TNM12/2412Z LAST NO AMDS AFT 2407 NEXT 2613
       
KHIO 241144Z 2412/2512 22007KT P6SM -SHRA OVC015 
     FM241700 24012KT P6SM -SHRA BKN025 OVC040 
     FM241900 27012G19KT P6SM VCSH SCT025 BKN035 OVC045 
     FM250000 27007KT P6SM BKN050 BKN080 
     FM251000 20010KT P6SM -RA OVC040
       
KHKS 241154Z 2412/2512 18008KT P6SM BKN008 BKN012 
     FM241500 19014G24KT P6SM VCSH BKN015 OVC025 
     FM241900 18018G29KT P6SM VCSH BKN035 
     FM250700 20017G28KT 2SM TSRA BKN015 OVC025CB 
     FM251000 30009KT 6SM -TSRA BKN025 OVC060CB
       
KHKY 241125Z 2412/2512 00000KT P6SM SCT080 
     FM241300 21006KT 5SM BR BKN050 
     FM241500 20010KT P6SM BKN045 
     FM251000 20009KT P6SM VCSH BKN025
       
KHLG 241150Z 2412/2512 01008KT 4SM -RA OVC008 
     FM241400 04007KT P6SM VCSH OVC015 
     FM250200 11008KT 2SM +SHRA OVC008 
     FM250500 14008KT 3SM +SHRA OVC010 WS020/20035KT 
     FM250900 19013G22KT 3SM -SHRA OVC035 WS020/21045KT
       
KHLN 241124Z 2412/2512 28007KT P6SM BKN050 
     FM250400 26006KT P6SM SCT120 
     FM250700 26006KT P6SM SCT150 WS020/27035KT
       
TAF AMD KHMN 240055Z 2400/2502 16012G20KT 9000 BLDU SKC 520009 QNH2993INS 
     TEMPO 2400/2403 16020G30KT 
     BECMG 2402/2403 21012G18KT 9999 NSW SKC QNH2996INS 
     TEMPO 2403/2410 21015G25KT 9000 BLDU 520009 
     BECMG 2409/2410 26012G18KT 9999 SKC QNH3004INS 
     TEMPO 2410/2412 26015G25KT 520009 
     BECMG 2411/2412 32015G25KT 9999 SKC 520009 QNH3007INS 
     BECMG 2418/2419 31012G18KT 9999 SKC QNH3006INS 
     BECMG 2423/2424 21009KT 9999 SKC QNH3007INS TX17/2400Z TNM02/2412Z LAST NO AMDS AFT 2401 NEXT 2604
       
KHND 241120Z 2412/2512 VRB05KT P6SM SKC 
     FM242100 23014KT P6SM SKC 
     FM250500 34012KT P6SM SKC
       
KHOB 241158Z 2412/2512 24011KT 1/4SM FG OVC003 
     FM241500 28018G27KT P6SM SKC 
     FM250000 26011KT P6SM FEW250
       
KHON 241141Z 2412/2512 16003KT 6SM BR OVC003 
     TEMPO 2412/2414 4SM BR 
     FM241400 13004KT 4SM -SN BR OVC003 
     FM241600 10005KT 3/4SM -SN OVC008 
     TEMPO 2416/2419 1/2SM SN 
     FM242000 13006KT 1 1/2SM -SN OVC008 
     FM242100 16005KT 3SM -SN OVC010 
     FM250000 27005KT P6SM OVC015 
     FM250500 25008KT P6SM SCT250
       
TAF KHOP 240800Z 2408/2514 08006KT 9000 -RA BR BKN005 OVC015 510203 QNH2998INS 
     BECMG 2413/2414 20012KT 9000 -SHRA OVC012 510104 QNH2996INS 
     BECMG 2417/2418 19012KT 8000 -SHRA OVC015 510103 QNH2981INS 
     TEMPO 2418/2421 22025G35KT 4800 -TSRA OVC012CB 
     BECMG 2501/2502 17012KT 9000 -SHRA OVC010 520104 QNH2977INS 
     TEMPO 2503/2505 23035G45KT 3200 -TSRA OVC007CB 
     BECMG 2505/2506 27015G25KT 8000 -RA BKN007 OVC015 510154 QNH2977INS 
     BECMG 2507/2508 29015KT 9999 NSW SCT015 BKN075 510302 QNH2986INS 
     BECMG 2511/2512 31009KT 9999 SCT200 510402 QNH3004INS TX22/2419Z TN14/2408Z
       
KHOT 241146Z 2412/2512 VRB03KT 5SM BR VCSH OVC005 
     TEMPO 2412/2415 2SM -DZ BR OVC003 
     FM241500 18007KT 5SM -SHRA VCTS OVC007CB 
     FM241900 20010G18KT 6SM SHRA VCTS OVC015CB 
     TEMPO 2420/2423 VRB20G30KT 2SM TSRA BR OVC007CB 
     FM242300 25009G16KT P6SM VCSH SCT020 BKN100 
     FM250400 30005KT P6SM SCT100 BKN250
       
KHOU 241136Z 2412/2512 16007KT P6SM VCSH SCT014 BKN029 
     FM241600 17012KT P6SM SCT008 OVC015 
     FM241900 19015G23KT P6SM BKN025 
     FM242300 20010KT P6SM -SHRA SCT010 OVC020 
     FM250500 25007KT P6SM VCSH BKN008 OVC015 
     FM250800 33005KT P6SM VCSH OVC004
       
KHPN 241153Z 2412/2512 30005KT P6SM FEW020 BKN200 
     FM241800 31005KT P6SM OVC080 
     FM242100 33007KT P6SM -RA SCT035 OVC070 
     FM242300 VRB04KT 5SM -RA BKN035 
     FM250000 00000KT 4SM -RA BKN025 
     FM250400 VRB03KT 4SM -RA BKN015 
     FM250900 09009KT 2SM RA OVC009 
     FM251100 09011G20KT 2SM RA OVC008 AMD NOT SKED
       
KHQM 241120Z 2412/2512 24014G23KT P6SM -SHRA SCT010 OVC040 
     FM241400 25018G28KT P6SM -SHRA SCT018 BKN040 
     FM241800 26018G28KT P6SM VCSH BKN040 
     FM250000 23009KT P6SM OVC040 
     FM250700 21018G27KT P6SM -RA OVC020
       
KHRL 241133Z 2412/2512 17017G25KT P6SM FEW015 BKN022 
     FM241700 17025G35KT P6SM SCT020 SCT050 
     FM242300 17018G24KT P6SM SCT040 BKN200 
     FM250200 15010KT P6SM SCT020 BKN200 
     FM250500 14008KT 5SM BR BKN010 
     PROB30 2506/2512 -TSRA BKN010CB
       
KHRO 241146Z 2412/2512 VRB05KT 5SM -SHRA BR SCT005 OVC020 
     TEMPO 2412/2416 2SM -SHRA BR OVC005 
     FM241600 14007KT 3SM SHRA BR VCTS OVC007CB 
     FM242100 22008KT P6SM VCSH OVC012 
     FM250100 26010G18KT P6SM SCT020 BKN250 
     FM250800 28007KT P6SM SCT250
       
TAF KHST 240800Z 2408/2514 10012KT 8000 -SHRA BKN020 QNH3017INS 
     BECMG 2414/2415 10012G18KT 9000 -SHRA BKN020 QNH3015INS 
     BECMG 2420/2421 11010G15KT 9999 NSW SCT025 BKN050 QNH3013INS 
     BECMG 2502/2503 10012KT 9999 BKN015 QNH3014INS 
     BECMG 2508/2509 11012KT 8000 -SHRA SCT015 BKN030 QNH3014INS TX27/2418Z TN21/2508Z
       
KHSV 241129Z 2412/2512 15009KT 6SM BR VCSH OVC040 
     FM241400 18012G20KT P6SM VCSH OVC015 
     FM242000 19014G22KT P6SM VCSH OVC050 
     FM250600 18016G27KT 5SM TSRA OVC025CB 
     FM251100 23012G20KT P6SM VCSH OVC050
       
KHTS 241120Z 2412/2512 01003KT 1/2SM FG BKN002 
     FM241300 02003KT 3SM -RA BR SCT018 OVC035 
     FM241700 04004KT P6SM SCT018 OVC035 
     FM241900 04004KT P6SM SCT025 
     FM242300 05004KT P6SM OVC250 
     FM250700 19008G14KT 5SM -SHRA OVC035
       
KHUF 241129Z 2412/2512 07008KT 4SM RA BR OVC010 
     FM250000 10007KT 2SM RA BR VCTS OVC004CB 
     FM250400 18014G23KT 4SM RA BR VCTS OVC008CB 
     FM250700 23017G30KT P6SM BKN020 
     FM251100 26015G23KT P6SM SCT080
       
KHUM 241144Z 2412/2512 15007KT P6SM BKN015 
     FM241500 16009KT P6SM SCT025 
     FM241700 17015KT P6SM BKN050 
     FM250100 18008KT P6SM BKN015
       
KHUT 241120Z 2412/2512 03007KT 2SM -DZ SCT003 OVC004 
     TEMPO 2412/2415 1SM -FZDZ OVC003 
     FM241700 28010KT 5SM BR SCT005 BKN008 
     FM241800 29013KT P6SM SCT008 BKN015 
     FM242000 29013KT P6SM SCT030
       
KHVR 241124Z 2412/2512 23020G30KT P6SM BKN080 
     FM241800 24017G29KT P6SM SCT080 
     FM242100 26015G25KT P6SM SCT150
       
KHYA 241141Z 2412/2512 25009KT P6SM BKN200 
     FM241700 29010KT P6SM SCT150 
     FM242200 01004KT P6SM -RA OVC045 
     FM250200 04004KT P6SM OVC060 
     FM251100 08011G23KT P6SM -RA OVC060
       
KHYR 241141Z 2412/2512 02003KT 1/4SM FZFG VV002 
     FM241300 00000KT 1/2SM FG SKC 
     FM241700 12012KT P6SM BKN090 
     FM250000 09010KT 2SM -SN OVC035 
     FM250200 08009KT 1/2SM SN OVC010 
     FM251100 23004KT 4SM -SN OVC015
       
KHYS 241120Z 2412/2512 10004KT 3SM BR BKN005 OVC008 
     FM241600 03007KT 2SM -FZDZ BKN003 
     FM241800 32008KT P6SM BKN003 
     FM242000 31016G26KT P6SM BKN015 
     FM250800 28005KT P6SM FEW250
       
KHUL 241140Z 2412/2512 28007KT P6SM VCSH SCT020 BKN040 
     TEMPO 2412/2414 BKN027 
     FM241400 26008KT P6SM BKN035 
     FM241600 32012G20KT P6SM BKN050 
     FM242100 31010KT P6SM SCT050 
     FM250500 35005KT P6SM SKC